Time;durP1;ratioP1;P1;durP2;ratioP2;P2;SDS_P1;SDS_P2;PMS_P1;PMS_P2;Temp;Humidity;BMP_temperature;BMP_pressure;BME280_temperature;BME280_humidity;BME280_pressure;Samples;Min_cycle;Max_cycle;Signal;HPM_P1;HPM_P2
2023/06/08 00:00:59;;;;;;;26.90;9.93;;;;;;;13.28;100.00;102090.50;5044941;28;20017;-57
2023/06/08 00:03:26;;;;;;;20.20;9.45;;;;;;;13.26;100.00;102084.38;5043781;28;20017;-59
2023/06/08 00:05:52;;;;;;;29.30;11.80;;;;;;;13.26;100.00;102087.91;5044917;28;20082;-59
2023/06/08 00:08:17;;;;;;;26.23;10.55;;;;;;;13.29;100.00;102088.72;5045226;28;20025;-58
2023/06/08 00:10:44;;;;;;;18.60;10.07;;;;;;;13.28;100.00;102090.50;5044725;28;20025;-62
2023/06/08 00:13:09;;;;;;;22.55;10.68;;;;;;;13.32;100.00;102080.69;5045440;28;20041;-58
2023/06/08 00:15:34;;;;;;;23.05;10.88;;;;;;;13.27;100.00;102087.00;5044393;28;20479;-60
2023/06/08 00:18:00;;;;;;;26.52;9.77;;;;;;;13.26;100.00;102073.78;5044746;28;20476;-58
2023/06/08 00:20:26;;;;;;;26.85;10.73;;;;;;;13.14;100.00;102080.25;5045327;28;20027;-58
2023/06/08 00:22:51;;;;;;;23.10;10.27;;;;;;;13.21;100.00;102079.19;5045099;28;20024;-61
2023/06/08 00:25:17;;;;;;;20.92;9.88;;;;;;;13.27;100.00;102078.16;5044640;28;20018;-58
2023/06/08 00:27:42;;;;;;;22.70;10.13;;;;;;;13.27;100.00;102078.16;5044584;28;20028;-61
2023/06/08 00:30:08;;;;;;;33.80;11.88;;;;;;;13.19;100.00;102072.22;5043998;28;20502;-58
2023/06/08 00:32:34;;;;;;;23.20;10.63;;;;;;;13.25;100.00;102070.25;5045031;28;20028;-55
2023/06/08 00:34:59;;;;;;;22.65;11.40;;;;;;;13.27;100.00;102067.59;5044735;28;20021;-61
2023/06/08 00:37:24;;;;;;;24.10;11.80;;;;;;;13.16;100.00;102067.00;5045134;28;20025;-57
2023/06/08 00:39:50;;;;;;;24.65;11.70;;;;;;;13.11;100.00;102062.69;5044834;28;20025;-59
2023/06/08 00:42:15;;;;;;;23.80;11.30;;;;;;;13.08;100.00;102062.75;5044592;28;20207;-59
2023/06/08 00:44:40;;;;;;;18.00;10.88;;;;;;;13.07;100.00;102057.50;5044574;28;20021;-60
2023/06/08 00:47:06;;;;;;;25.05;12.48;;;;;;;13.12;100.00;102055.59;5044571;28;20025;-58
2023/06/08 00:49:32;;;;;;;28.92;11.23;;;;;;;13.07;100.00;102066.34;5043626;28;20196;-58
2023/06/08 00:51:57;;;;;;;27.13;11.55;;;;;;;13.08;100.00;102062.75;5043227;28;20086;-59
2023/06/08 00:54:25;;;;;;;25.38;11.93;;;;;;;13.11;100.00;102052.09;5044978;28;20029;-57
2023/06/08 00:56:52;;;;;;;25.73;12.35;;;;;;;13.02;100.00;102052.34;5059709;28;20078;-63
2023/06/08 00:59:18;;;;;;;24.48;12.65;;;;;;;12.95;100.00;102048.09;5043195;28;20112;-61
2023/06/08 01:01:44;;;;;;;24.50;13.02;;;;;;;12.97;100.00;102043.63;5044194;28;20578;-58
2023/06/08 01:04:11;;;;;;;29.27;12.95;;;;;;;12.91;100.00;102049.94;5044939;28;20236;-58
2023/06/08 01:06:38;;;;;;;29.10;12.57;;;;;;;12.91;100.00;102041.16;5044061;28;20104;-59
2023/06/08 01:09:27;;;;;;;28.98;13.55;;;;;;;12.84;100.00;102043.06;5043825;28;20091;-56
2023/06/08 01:11:55;;;;;;;27.58;12.50;;;;;;;12.96;100.00;102033.97;5044277;28;20025;-59
2023/06/08 01:14:38;;;;;;;29.27;13.82;;;;;;;12.92;100.00;102040.25;5043545;28;20392;-58
2023/06/08 01:17:09;;;;;;;26.95;13.32;;;;;;;12.86;100.00;102042.13;5042894;28;20055;-56
2023/06/08 01:20:07;;;;;;;33.45;14.27;;;;;;;12.82;100.00;102048.38;5042962;28;20024;-56
2023/06/08 01:22:56;;;;;;;28.08;13.02;;;;;;;12.92;100.00;102045.53;5044492;28;20430;-57
2023/06/08 01:25:23;;;;;;;31.38;13.43;;;;;;;12.85;100.00;102039.50;5044631;28;20519;-55
2023/06/08 01:27:48;;;;;;;30.85;14.85;;;;;;;12.84;100.00;102048.34;5042821;28;20021;-55
2023/06/08 01:30:14;;;;;;;26.77;13.60;;;;;;;12.86;100.00;102034.19;5043596;28;20023;-58
2023/06/08 01:32:39;;;;;;;26.50;13.85;;;;;;;12.80;100.00;102031.72;5044683;28;20471;-57
2023/06/08 01:35:05;;;;;;;28.30;14.07;;;;;;;12.81;100.00;102038.72;5044337;28;20044;-62
2023/06/08 01:37:38;;;;;;;37.33;16.00;;;;;;;12.76;100.00;102040.59;5044444;28;20387;-56
2023/06/08 01:40:16;;;;;;;28.00;13.95;;;;;;;12.84;100.00;102033.38;5042859;28;20047;-59
2023/06/08 01:42:42;;;;;;;26.40;13.43;;;;;;;12.81;100.00;102033.44;5043310;28;20037;-58
2023/06/08 01:45:10;;;;;;;27.42;14.57;;;;;;;12.81;100.00;102028.16;5042652;28;20479;-61
2023/06/08 01:47:40;;;;;;;26.40;13.95;;;;;;;12.83;100.00;102021.06;5044576;28;20025;-58
2023/06/08 01:50:06;;;;;;;31.75;14.70;;;;;;;12.76;100.00;102027.38;5042744;28;20024;-59
2023/06/08 01:52:32;;;;;;;29.02;14.15;;;;;;;12.86;100.00;102020.09;5042432;28;20025;-57
2023/06/08 01:54:57;;;;;;;32.13;14.85;;;;;;;12.70;100.00;102025.75;5043833;28;20574;-62
2023/06/08 01:57:22;;;;;;;30.75;13.73;;;;;;;12.70;100.00;102024.91;5043673;28;20056;-59
2023/06/08 01:59:48;;;;;;;29.88;15.23;;;;;;;12.70;100.00;102025.75;5042566;28;20061;-57
2023/06/08 02:02:13;;;;;;;29.02;13.75;;;;;;;12.70;100.00;102015.16;5044011;28;20025;-59
2023/06/08 02:04:38;;;;;;;32.88;15.88;;;;;;;12.66;100.00;102020.56;5043824;28;20060;-58
2023/06/08 02:07:04;;;;;;;27.48;14.82;;;;;;;12.64;100.00;102024.13;5043986;28;20036;-58
2023/06/08 02:09:30;;;;;;;29.90;15.60;;;;;;;12.63;100.00;102021.50;5047756;28;20060;-57
2023/06/08 02:12:08;;;;;;;34.35;14.93;;;;;;;12.69;100.00;102023.13;5047183;28;20646;-55
2023/06/08 02:14:34;;;;;;;28.10;14.63;;;;;;;12.77;100.00;102022.06;5046379;28;20060;-58
2023/06/08 02:17:00;;;;;;;29.83;15.18;;;;;;;12.79;100.00;102015.88;5047324;28;20049;-56
2023/06/08 02:19:26;;;;;;;29.13;15.20;;;;;;;12.77;100.00;102019.41;5046897;28;20021;-58
2023/06/08 02:21:52;;;;;;;34.97;15.43;;;;;;;12.75;100.00;102017.72;5047003;28;20027;-57
2023/06/08 02:24:18;;;;;;;28.10;14.65;;;;;;;12.82;100.00;102003.44;5047232;28;20104;-58
2023/06/08 02:26:43;;;;;;;27.05;14.32;;;;;;;12.76;100.00;102014.16;5046845;28;20503;-59
2023/06/08 02:29:09;;;;;;;36.40;14.35;;;;;;;12.77;100.00;102007.97;5046884;28;20021;-62
2023/06/08 02:31:34;;;;;;;26.90;13.55;;;;;;;12.77;100.00;102015.91;5047079;28;20037;-59
2023/06/08 02:34:00;;;;;;;28.85;14.57;;;;;;;12.80;100.00;102014.97;5046545;28;20021;-56
2023/06/08 02:36:31;;;;;;;24.77;14.45;;;;;;;12.82;100.00;102018.44;5046846;28;20041;-58
2023/06/08 02:38:57;;;;;;;32.70;14.32;;;;;;;12.77;100.00;102013.25;5046606;28;20136;-59
2023/06/08 02:41:23;;;;;;;26.58;14.48;;;;;;;12.73;100.00;102019.50;5046940;28;20486;-60
2023/06/08 02:43:48;;;;;;;30.75;15.00;;;;;;;12.76;100.00;102019.44;5045648;28;20103;-59
2023/06/08 02:46:13;;;;;;;28.45;14.13;;;;;;;12.73;100.00;102025.69;5046963;28;20459;-59
2023/06/08 02:48:39;;;;;;;29.63;14.55;;;;;;;12.64;100.00;102024.13;5047407;28;20029;-58
2023/06/08 02:51:04;;;;;;;31.35;15.23;;;;;;;12.58;100.00;102026.91;5046782;28;20029;-59
2023/06/08 02:53:30;;;;;;;23.65;14.75;;;;;;;12.59;100.00;102020.75;5046578;28;20021;-60
2023/06/08 02:55:56;;;;;;;30.02;14.73;;;;;;;12.61;100.00;102021.56;5046650;28;20060;-59
2023/06/08 02:58:23;;;;;;;27.25;14.73;;;;;;;12.58;100.00;102026.06;5045902;28;20563;-59
2023/06/08 03:00:53;;;;;;;29.95;15.27;;;;;;;12.64;100.00;102026.78;5047099;28;20029;-59
2023/06/08 03:03:22;;;;;;;26.38;14.40;;;;;;;12.59;100.00;102020.75;5046984;28;20029;-56
2023/06/08 03:05:49;;;;;;;25.27;13.63;;;;;;;12.63;100.00;102025.03;5047180;28;20025;-58
2023/06/08 03:08:15;;;;;;;27.27;15.02;;;;;;;12.63;100.00;102024.16;5046936;28;20033;-59
2023/06/08 03:10:40;;;;;;;26.10;13.30;;;;;;;12.66;100.00;102012.63;5046839;28;20009;-58
2023/06/08 03:13:06;;;;;;;34.08;16.10;;;;;;;12.63;100.00;102021.50;5045708;28;20049;-56
2023/06/08 03:15:31;;;;;;;25.52;14.70;;;;;;;12.60;100.00;102025.13;5046721;28;20120;-59
2023/06/08 03:17:57;;;;;;;21.20;13.88;;;;;;;12.55;100.00;102015.56;5046100;28;20109;-59
2023/06/08 03:20:22;;;;;;;23.15;14.35;;;;;;;12.58;100.00;102020.78;5045151;28;20037;-55
2023/06/08 03:22:47;;;;;;;23.38;14.18;;;;;;;12.56;100.00;102018.16;5046300;28;20025;-55
2023/06/08 03:25:16;;;;;;;25.20;14.57;;;;;;;12.56;100.00;102023.44;5047006;28;20028;-61
2023/06/08 03:27:42;;;;;;;29.95;15.23;;;;;;;12.48;100.00;102022.75;5046951;28;20104;-60
2023/06/08 03:30:09;;;;;;;24.90;14.98;;;;;;;12.42;100.00;102022.88;5047972;28;20032;-59
2023/06/08 03:32:34;;;;;;;30.77;14.57;;;;;;;12.50;100.00;102023.59;5045972;28;20490;-59
2023/06/08 03:34:59;;;;;;;23.88;14.75;;;;;;;12.50;100.00;102024.44;5045258;28;20033;-58
2023/06/08 03:37:25;;;;;;;30.58;15.40;;;;;;;12.31;100.00;102026.63;5047055;28;20021;-57
2023/06/08 03:39:50;;;;;;;28.67;15.93;;;;;;;12.38;100.00;102022.09;5046184;28;20467;-60
2023/06/08 03:42:15;;;;;;;30.30;14.63;;;;;;;12.47;100.00;102023.66;5045956;28;20032;-56
2023/06/08 03:44:41;;;;;;;25.60;13.88;;;;;;;12.43;100.00;102012.28;5045905;28;20032;-59
2023/06/08 03:47:12;;;;;;;28.58;14.70;;;;;;;12.41;100.00;102023.78;5045806;28;20049;-58
2023/06/08 03:49:37;;;;;;;28.48;15.48;;;;;;;12.34;100.00;102018.63;5046531;28;20085;-59
2023/06/08 03:52:04;;;;;;;26.13;14.88;;;;;;;12.28;100.00;102018.75;5046500;28;20072;-57
2023/06/08 03:54:29;;;;;;;26.30;14.20;;;;;;;12.33;100.00;102011.63;5045453;28;20029;-60
2023/06/08 03:56:55;;;;;;;31.30;14.57;;;;;;;12.48;100.00;102017.44;5045338;28;20033;-58
2023/06/08 03:59:21;;;;;;;23.38;13.43;;;;;;;12.52;100.00;102021.75;5044790;28;20040;-54
2023/06/08 04:01:46;;;;;;;26.30;14.13;;;;;;;12.48;100.00;102014.81;5045703;28;20419;-55
2023/06/08 04:04:11;;;;;;;30.05;14.50;;;;;;;12.45;100.00;102025.44;5046420;28;20123;-55
2023/06/08 04:06:38;;;;;;;26.33;14.02;;;;;;;12.41;100.00;102022.03;5043990;28;20419;-58
2023/06/08 04:09:04;;;;;;;24.25;13.43;;;;;;;12.51;100.00;102020.03;5045250;28;20391;-61
2023/06/08 04:11:29;;;;;;;23.42;13.30;;;;;;;12.50;100.00;102026.22;5045626;28;20107;-58
2023/06/08 04:13:54;;;;;;;27.20;13.60;;;;;;;12.58;100.00;102020.78;5043850;28;20551;-56
2023/06/08 04:16:20;;;;;;;26.48;13.75;;;;;;;12.69;100.00;102010.81;5045569;28;20025;-56
2023/06/08 04:18:46;;;;;;;27.98;12.38;;;;;;;12.71;100.00;102016.06;5044913;28;20419;-56
2023/06/08 04:21:12;;;;;;;26.45;13.15;;;;;;;12.54;100.00;102019.97;5045340;28;20202;-56
2023/06/08 04:23:37;;;;;;;24.17;12.75;;;;;;;12.76;100.00;102019.44;5044902;28;20777;-60
2023/06/08 04:26:03;;;;;;;23.73;13.20;;;;;;;12.84;100.00;102008.69;5044677;28;20447;-59
2023/06/08 04:28:29;;;;;;;22.80;13.20;;;;;;;12.77;100.00;102011.47;5044253;28;20112;-55
2023/06/08 04:30:54;;;;;;;24.05;13.02;;;;;;;12.75;100.00;102017.72;5044337;28;20025;-59
2023/06/08 04:33:20;;;;;;;23.77;12.45;;;;;;;12.85;100.00;102008.66;5044794;28;20031;-58
2023/06/08 04:35:45;;;;;;;26.55;13.13;;;;;;;12.88;100.00;102010.34;5044398;28;20052;-59
2023/06/08 04:38:14;;;;;;;29.30;12.65;;;;;;;12.77;100.00;102011.47;5044863;28;20059;-58
2023/06/08 04:40:47;;;;;;;24.05;12.68;;;;;;;12.68;100.00;102017.00;5045089;28;20404;-54
2023/06/08 04:43:13;;;;;;;22.25;12.70;;;;;;;12.74;100.00;102008.91;5044274;28;20434;-59
2023/06/08 04:45:41;;;;;;;25.40;12.52;;;;;;;12.73;100.00;102015.09;5045552;28;20029;-60
2023/06/08 04:48:07;;;;;;;22.33;13.45;;;;;;;12.68;100.00;102021.41;5044522;28;20493;-60
2023/06/08 04:50:33;;;;;;;20.40;12.45;;;;;;;12.67;100.00;102014.41;5045899;28;20384;-58
2023/06/08 04:53:01;;;;;;;23.75;13.05;;;;;;;12.76;100.00;102015.03;5046592;28;20047;-58
2023/06/08 04:55:27;;;;;;;24.05;12.60;;;;;;;12.71;100.00;102011.66;5045430;28;20040;-59
2023/06/08 04:57:52;;;;;;;22.85;13.10;;;;;;;12.80;100.00;102012.31;5044172;28;20029;-56
2023/06/08 05:00:18;;;;;;;25.20;11.80;;;;;;;13.01;100.00;102008.28;5045348;28;20025;-56
2023/06/08 05:02:44;;;;;;;21.50;12.55;;;;;;;13.00;100.00;102006.50;5044408;28;20025;-59
2023/06/08 05:05:09;;;;;;;28.77;11.80;;;;;;;12.86;100.00;102005.09;5045072;28;20014;-57
2023/06/08 05:07:35;;;;;;;23.52;12.10;;;;;;;12.98;100.00;102016.28;5045076;28;20169;-53
2023/06/08 05:10:03;;;;;;;21.13;11.95;;;;;;;13.03;100.00;102006.44;5045244;28;20714;-61
2023/06/08 05:12:28;;;;;;;24.15;12.35;;;;;;;13.01;100.00;102005.63;5044829;28;20017;-57
2023/06/08 05:14:54;;;;;;;23.38;12.35;;;;;;;12.89;100.00;102005.00;5044404;28;20144;-58
2023/06/08 05:17:21;;;;;;;20.10;12.45;;;;;;;13.05;100.00;102003.75;5044512;28;20407;-61
2023/06/08 05:19:47;;;;;;;23.67;12.43;;;;;;;13.12;100.00;102000.03;5043889;28;20028;-57
2023/06/08 05:22:12;;;;;;;19.70;11.45;;;;;;;13.16;100.00;102003.47;5045295;28;20467;-63
2023/06/08 05:24:37;;;;;;;24.70;12.50;;;;;;;13.06;100.00;102006.34;5046427;28;20455;-56
2023/06/08 05:27:03;;;;;;;24.60;12.82;;;;;;;12.96;100.00;102002.22;5046440;28;20456;-57
2023/06/08 05:29:28;;;;;;;24.17;13.05;;;;;;;12.86;100.00;101993.66;5045591;28;20497;-55
2023/06/08 05:31:53;;;;;;;21.50;12.30;;;;;;;12.93;100.00;101992.59;5046245;28;20044;-58
2023/06/08 05:34:19;;;;;;;19.70;12.13;;;;;;;12.82;100.00;101998.13;5044563;28;20021;-55
2023/06/08 05:36:44;;;;;;;25.83;12.70;;;;;;;12.93;100.00;101991.69;5045678;28;20022;-57
2023/06/08 05:39:10;;;;;;;18.30;12.98;;;;;;;13.17;100.00;101991.97;5044717;28;20108;-58
2023/06/08 05:41:35;;;;;;;17.60;11.95;;;;;;;13.18;100.00;101991.09;5044097;28;20079;-59
2023/06/08 05:44:00;;;;;;;22.17;12.57;;;;;;;13.29;100.00;101985.50;5046969;28;20530;-56
2023/06/08 05:46:26;;;;;;;22.20;11.75;;;;;;;13.33;100.00;101988.00;5048129;28;20491;-56
2023/06/08 05:48:51;;;;;;;25.13;12.20;;;;;;;13.10;100.00;101980.69;5047892;28;20266;-54
2023/06/08 05:51:16;;;;;;;20.70;12.18;;;;;;;13.56;100.00;101983.91;5047744;28;20021;-59
2023/06/08 05:53:42;;;;;;;17.83;11.57;;;;;;;13.58;100.00;101982.06;5048059;28;20068;-55
2023/06/08 05:56:07;;;;;;;23.92;12.70;;;;;;;13.66;100.00;101981.00;5048494;28;20040;-58
2023/06/08 05:58:32;;;;;;;24.42;12.02;;;;;;;13.69;100.00;101975.63;5047312;28;20521;-57
2023/06/08 06:00:59;;;;;;;20.02;10.80;;;;;;;13.87;100.00;101980.38;5047601;28;20021;-60
2023/06/08 06:03:24;;;;;;;24.15;11.07;;;;;;;13.94;100.00;101977.53;5047707;28;20507;-55
2023/06/08 06:05:50;;;;;;;21.15;11.63;;;;;;;14.13;100.00;101975.19;5047244;28;20234;-55
2023/06/08 06:08:15;;;;;;;24.70;11.98;;;;;;;14.10;100.00;101977.94;5048019;28;20025;-59
2023/06/08 06:10:40;;;;;;;34.35;13.10;;;;;;;14.24;100.00;101972.22;5048562;28;20024;-55
2023/06/08 06:13:06;;;;;;;26.38;11.77;;;;;;;14.23;100.00;101981.94;5046722;28;20261;-57
2023/06/08 06:15:31;;;;;;;20.75;11.55;;;;;;;14.33;100.00;101977.22;5046196;28;20099;-58
2023/06/08 06:17:56;;;;;;;25.60;12.80;;;;;;;14.21;100.00;101974.97;5047411;28;20411;-57
2023/06/08 06:20:23;;;;;;;20.10;11.68;;;;;;;14.28;100.00;101980.03;5047649;28;20032;-58
2023/06/08 06:22:48;;;;;;;20.13;11.70;;;;;;;14.25;100.00;101976.59;5047299;28;20044;-55
2023/06/08 06:25:15;;;;;;;20.60;11.48;;;;;;;14.39;100.00;101979.66;5047456;28;20071;-59
2023/06/08 06:27:40;;;;;;;20.95;11.18;;;;;;;14.26;100.00;101975.66;5046899;28;20317;-59
2023/06/08 06:30:07;;;;;;;19.25;11.07;;;;;;;14.48;100.00;101982.97;5047120;28;20029;-56
2023/06/08 06:32:32;;;;;;;27.45;11.43;;;;;;;14.53;100.00;101981.00;5046996;28;20385;-62
2023/06/08 06:34:57;;;;;;;18.27;10.05;;;;;;;14.64;100.00;101978.91;5047070;28;20339;-58
2023/06/08 06:37:23;;;;;;;21.27;9.75;;;;;;;14.73;100.00;101971.53;5047669;28;20025;-57
2023/06/08 06:39:48;;;;;;;21.15;10.02;;;;;;;14.76;100.00;101976.75;5046546;28;20025;-61
2023/06/08 06:42:15;;;;;;;23.25;10.25;;;;;;;14.50;100.00;101976.69;5046291;28;20035;-59
2023/06/08 06:44:40;;;;;;;21.38;10.45;;;;;;;14.49;100.00;101985.56;5047251;28;20313;-55
2023/06/08 06:47:05;;;;;;;12.57;9.07;;;;;;;14.48;100.00;101977.66;5046120;28;20505;-56
2023/06/08 06:49:31;;;;;;;16.15;9.25;;;;;;;14.85;100.00;101980.91;5046603;28;20033;-58
2023/06/08 06:51:56;;;;;;;14.75;8.48;;;;;;;14.98;100.00;101984.00;5046633;28;20021;-59
2023/06/08 06:54:21;;;;;;;16.95;8.88;;;;;;;15.15;100.00;101980.78;5046623;28;20036;-57
2023/06/08 06:56:47;;;;;;;13.90;8.85;;;;;;;15.25;100.00;101978.66;5046588;28;20055;-55
2023/06/08 06:59:12;;;;;;;20.42;8.57;;;;;;;15.26;100.00;101975.09;5046100;28;20308;-63
2023/06/08 07:01:37;;;;;;;13.73;7.93;;;;;;;15.32;100.00;101972.19;5046710;28;20170;-58
2023/06/08 07:04:04;;;;;;;11.75;7.45;;;;;;;15.41;100.00;101969.22;5045814;28;20387;-60
2023/06/08 07:06:30;;;;;;;16.63;8.00;;;;;;;15.31;100.00;101973.13;5046496;28;20027;-55
2023/06/08 07:08:55;;;;;;;13.70;7.38;;;;;;;15.18;100.00;101972.69;5044562;28;20560;-55
2023/06/08 07:11:21;;;;;;;17.80;8.07;;;;;;;15.24;100.00;101974.28;5046274;28;20231;-60
2023/06/08 07:13:46;;;;;;;21.88;7.63;;;;;;;15.39;100.00;101976.34;5045014;28;20550;-57
2023/06/08 07:16:11;;;;;;;19.70;7.80;;;;;;;15.32;100.00;101976.66;5046554;28;20025;-56
2023/06/08 07:18:37;;;;;;;18.02;7.43;;;;;;;15.62;100.00;101976.47;5045937;28;20070;-56
2023/06/08 07:21:02;;;;;;;13.65;7.32;;;;;;;15.85;100.00;101986.22;5045651;28;20020;-58
2023/06/08 07:23:27;;;;;;;17.48;7.75;;;;;;;16.08;100.00;101980.97;5045977;28;20108;-58
2023/06/08 07:25:53;;;;;;;15.38;7.93;;;;;;;16.53;100.00;101979.19;5045699;28;20268;-58
2023/06/08 07:28:18;;;;;;;22.70;8.13;;;;;;;16.62;100.00;101973.47;5044912;28;20012;-59
2023/06/08 07:30:43;;;;;;;17.48;6.90;;;;;;;16.74;100.00;101981.88;5045601;28;20570;-58
2023/06/08 07:33:09;;;;;;;19.15;7.55;;;;;;;16.44;100.00;101985.75;5045847;28;20038;-59
2023/06/08 07:35:35;;;;;;;22.17;8.60;;;;;;;16.30;100.00;101986.31;5045424;28;20044;-58
2023/06/08 07:38:00;;;;;;;20.73;9.27;;;;;;;16.07;100.00;101977.44;5045330;28;20025;-56
2023/06/08 07:40:25;;;;;;;18.13;8.50;;;;;;;16.39;100.00;101983.28;5045403;28;20035;-62
2023/06/08 07:42:51;;;;;;;22.27;8.80;;;;;;;16.09;100.00;101967.63;5044786;28;20025;-60
2023/06/08 07:45:16;;;;;;;20.30;9.05;;;;;;;16.06;100.00;101975.72;5045778;28;20032;-60
2023/06/08 07:47:42;;;;;;;16.63;9.43;;;;;;;16.12;100.00;101971.94;5045634;28;20033;-64
2023/06/08 07:50:08;;;;;;;15.73;8.68;;;;;;;16.15;100.00;101974.47;5045321;28;20475;-61
2023/06/08 07:52:34;;;;;;;17.42;8.60;;;;;;;16.07;100.00;101972.13;5045232;28;20021;-58
2023/06/08 07:54:59;;;;;;;19.92;9.40;;;;;;;16.50;100.00;101969.53;5044752;28;20036;-62
2023/06/08 07:57:25;;;;;;;15.48;8.35;;;;;;;16.82;100.00;101968.28;5044658;28;20476;-59
2023/06/08 07:59:50;;;;;;;21.27;8.68;;;;;;;16.93;100.00;101968.66;5044881;28;20025;-59
2023/06/08 08:02:16;;;;;;;19.08;9.15;;;;;;;17.09;100.00;101968.88;5045160;28;20096;-60
2023/06/08 08:04:41;;;;;;;16.45;9.32;;;;;;;17.28;100.00;101963.63;5044917;28;20455;-61
2023/06/08 08:07:06;;;;;;;16.23;8.48;;;;;;;17.71;100.00;101959.06;5044948;28;20384;-60
2023/06/08 08:09:32;;;;;;;20.75;7.95;;;;;;;17.97;100.00;101954.31;5045144;28;20475;-59
2023/06/08 08:11:57;;;;;;;16.88;9.27;;;;;;;18.09;100.00;101956.38;5043975;28;20017;-58
2023/06/08 08:14:23;;;;;;;18.90;8.65;;;;;;;18.28;100.00;101963.53;5060044;28;20088;-59
2023/06/08 08:16:48;;;;;;;18.52;9.02;;;;;;;18.04;100.00;101963.75;5044631;28;20028;-58
2023/06/08 08:19:13;;;;;;;24.25;8.80;;;;;;;18.25;100.00;101964.56;5044642;28;20056;-58
2023/06/08 08:21:39;;;;;;;20.85;9.23;;;;;;;17.94;100.00;101964.19;5045248;28;20053;-63
2023/06/08 08:24:05;;;;;;;16.45;8.90;;;;;;;17.91;100.00;101967.00;5044606;28;20021;-59
2023/06/08 08:26:30;;;;;;;16.35;8.57;;;;;;;17.89;100.00;101966.22;5044734;28;20040;-59
2023/06/08 08:28:56;;;;;;;19.20;8.65;;;;;;;17.83;100.00;101961.16;5043497;28;20029;-59
2023/06/08 08:31:22;;;;;;;18.15;8.30;;;;;;;17.74;100.00;101961.59;5044373;28;20075;-59
2023/06/08 08:33:47;;;;;;;17.88;8.50;;;;;;;17.70;100.00;101957.34;5044155;28;20375;-59
2023/06/08 08:36:12;;;;;;;14.82;7.40;;;;;;;17.75;100.00;101963.31;5044240;28;20037;-63
2023/06/08 08:38:39;;;;;;;14.25;7.35;;;;;;;17.71;100.00;101967.06;5044659;28;20387;-61
2023/06/08 08:41:06;;;;;;;12.40;7.60;;;;;;;17.73;100.00;101970.53;5044647;28;20017;-58
2023/06/08 08:43:57;;;;;;;21.15;7.03;;;;;;;17.96;100.00;101971.25;5042066;28;20148;-58
2023/06/08 08:46:23;;;;;;;16.38;6.80;;;;;;;17.76;100.00;101973.06;5044312;28;20029;-58
2023/06/08 08:48:50;;;;;;;19.45;7.47;;;;;;;17.74;100.00;101967.81;5044481;28;20025;-60
2023/06/08 08:51:20;;;;;;;18.40;6.53;;;;;;;17.85;100.00;101972.59;5044183;28;20029;-58
2023/06/08 08:53:48;;;;;;;10.40;5.45;;;;;;;17.99;100.00;101976.44;5043996;28;20127;-54
2023/06/08 08:56:18;;;;;;;12.88;6.20;;;;;;;18.26;100.00;101965.41;5044365;28;20118;-58
2023/06/08 08:58:44;;;;;;;13.52;5.93;;;;;;;18.56;100.00;101964.84;5043108;28;20028;-60
2023/06/08 09:01:10;;;;;;;15.65;6.70;;;;;;;18.34;100.00;101965.91;5045191;28;20114;-61
2023/06/08 09:03:36;;;;;;;20.38;7.40;;;;;;;18.04;100.00;101958.44;5044307;28;20073;-60
2023/06/08 09:06:01;;;;;;;16.25;6.55;;;;;;;17.98;100.00;101961.38;5044070;28;20098;-59
2023/06/08 09:08:27;;;;;;;13.65;6.30;;;;;;;18.10;100.00;101957.25;5044302;28;20036;-62
2023/06/08 09:11:04;;;;;;;15.75;6.45;;;;;;;18.17;100.00;101959.59;5043710;28;20031;-59
2023/06/08 09:13:33;;;;;;;18.63;6.53;;;;;;;18.58;100.00;101951.41;5043088;28;20518;-59
2023/06/08 09:16:11;;;;;;;16.02;7.13;;;;;;;18.55;100.00;101952.44;5044511;28;20028;-62
2023/06/08 09:18:37;;;;;;;12.13;6.53;;;;;;;18.63;100.00;101958.25;5050817;28;20111;-58
2023/06/08 09:21:21;;;;;;;16.20;6.07;;;;;;;18.69;100.00;101949.94;5050862;28;20523;-60
2023/06/08 09:24:17;;;;;;;13.68;6.28;;;;;;;18.63;100.00;101952.06;5050352;28;20033;-59
2023/06/08 09:26:49;;;;;;;14.98;7.10;;;;;;;18.64;100.00;101946.66;5049766;28;20036;-63
2023/06/08 09:29:34;;;;;;;17.90;6.93;;;;;;;18.83;100.00;101945.69;5050606;28;20033;-59
2023/06/08 09:32:01;;;;;;;15.73;6.50;;;;;;;19.06;100.00;101949.81;5050339;28;20013;-61
2023/06/08 09:34:29;;;;;;;16.98;8.13;;;;;;;18.73;100.00;101941.78;5050581;28;20025;-58
2023/06/08 09:37:07;;;;;;;16.57;6.80;;;;;;;18.84;100.00;101942.06;5048993;28;20056;-55
2023/06/08 09:39:44;;;;;;;12.85;6.75;;;;;;;18.75;100.00;101948.75;5050472;28;20279;-59
2023/06/08 09:42:10;;;;;;;14.13;6.15;;;;;;;19.04;100.00;101933.03;5049939;28;20031;-58
2023/06/08 09:44:35;;;;;;;16.48;5.75;;;;;;;19.35;100.00;101938.56;5050076;28;20025;-59
2023/06/08 09:47:21;;;;;;;11.77;6.00;;;;;;;19.77;100.00;101936.31;5050492;28;20108;-58
2023/06/08 09:49:49;;;;;;;12.73;6.45;;;;;;;19.80;100.00;101941.47;5050376;28;20025;-60
2023/06/08 09:52:14;;;;;;;17.52;6.47;;;;;;;19.49;100.00;101948.53;5050328;28;20523;-60
2023/06/08 09:54:42;;;;;;;12.82;6.35;;;;;;;19.57;100.00;101942.78;5049452;28;20035;-59
2023/06/08 09:57:08;;;;;;;13.23;6.10;;;;;;;19.48;100.00;101937.91;5048852;28;20017;-58
2023/06/08 09:59:38;;;;;;;14.90;6.82;;;;;;;19.38;100.00;101938.41;5048959;28;20025;-58
2023/06/08 10:02:30;;;;;;;13.75;6.35;;;;;;;19.78;100.00;101929.16;5048785;28;20044;-60
2023/06/08 10:05:00;;;;;;;12.57;6.15;;;;;;;19.72;99.57;101932.16;5036779;28;20044;-59
2023/06/08 10:07:29;;;;;;;16.92;6.40;;;;;;;19.73;99.65;101936.56;5048716;28;20040;-60
2023/06/08 10:10:04;;;;;;;11.73;6.38;;;;;;;20.19;99.00;101939.34;5049605;28;20045;-62
2023/06/08 10:12:30;;;;;;;9.48;5.55;;;;;;;20.42;100.00;101938.97;5049382;28;20081;-60
2023/06/08 10:14:56;;;;;;;18.75;7.13;;;;;;;20.41;99.78;101940.75;5048054;28;20044;-57
2023/06/08 10:17:23;;;;;;;10.80;5.93;;;;;;;20.28;99.30;101939.75;5050280;28;20021;-61
2023/06/08 10:19:49;;;;;;;14.60;6.30;;;;;;;20.53;96.85;101932.97;5049896;28;20063;-63
2023/06/08 10:22:14;;;;;;;18.67;6.47;;;;;;;20.72;97.71;101932.75;5049846;28;20052;-63
2023/06/08 10:24:40;;;;;;;18.67;6.85;;;;;;;20.52;94.38;101934.78;5050667;28;20490;-60
2023/06/08 10:27:09;;;;;;;19.05;6.72;;;;;;;20.49;95.74;101928.72;5048129;28;20021;-61
2023/06/08 10:29:35;;;;;;;15.85;6.60;;;;;;;20.73;96.91;101934.47;5045839;28;20123;-57
2023/06/08 10:32:05;;;;;;;12.27;6.05;;;;;;;21.16;99.66;101922.97;5046571;28;20031;-58
2023/06/08 10:34:38;;;;;;;12.65;6.10;;;;;;;20.96;96.56;101924.22;5046481;28;20124;-58
2023/06/08 10:37:03;;;;;;;17.73;5.90;;;;;;;21.01;96.15;101921.25;5046933;28;20036;-61
2023/06/08 10:39:29;;;;;;;21.73;6.07;;;;;;;21.11;95.07;101922.41;5046505;28;20028;-60
2023/06/08 10:41:56;;;;;;;11.10;6.00;;;;;;;21.24;95.63;101922.50;5044294;28;20025;-61
2023/06/08 10:44:32;;;;;;;11.13;6.20;;;;;;;21.04;98.13;101924.59;5046582;28;20060;-61
2023/06/08 10:46:59;;;;;;;11.23;5.82;;;;;;;21.32;92.92;101925.56;5046056;28;20053;-63
2023/06/08 10:49:28;;;;;;;17.88;6.95;;;;;;;21.15;93.61;101918.56;5046645;28;20390;-60
2023/06/08 10:51:55;;;;;;;16.30;6.72;;;;;;;21.16;94.76;101922.13;5046673;28;20111;-58
2023/06/08 10:54:22;;;;;;;14.30;6.55;;;;;;;20.92;93.59;101920.84;5046359;28;20021;-60
2023/06/08 10:56:52;;;;;;;10.32;5.80;;;;;;;21.33;95.32;101916.56;5045265;28;20060;-59
2023/06/08 10:59:36;;;;;;;15.95;6.13;;;;;;;21.63;91.04;101912.03;5046237;28;20066;-61
2023/06/08 11:02:05;;;;;;;12.48;6.10;;;;;;;21.77;95.56;101916.53;5046326;28;20105;-60
2023/06/08 11:04:32;;;;;;;13.10;4.90;;;;;;;22.03;94.73;101918.47;5046182;28;20166;-59